LIMC 200050Z 02006KT CAVOK 17/14 Q1026 NOSIG LIMC 200020Z 02005KT CAVOK 17/14 Q1026 NOSIG LIMC 192350Z 01007KT CAVOK 18/14 Q1026 NOSIG LIMC 192320Z 02006KT CAVOK 18/14 Q1026 NOSIG LIMC 192250Z 02005KT CAVOK 18/14 Q1026 NOSIG LIMC 192220Z 02005KT CAVOK 19/14 Q1026 NOSIG LIMC 192150Z 03005KT CAVOK 19/14 Q1026 NOSIG LIMC 192120Z 02008KT CAVOK 20/14 Q1026 NOSIG LIMC 192050Z 35007KT CAVOK 20/12 Q1026 NOSIG LIMC 192020Z 15003KT 120V190 CAVOK 21/12 Q1026 NOSIG LIMC 191950Z 03003KT CAVOK 22/12 Q1026 NOSIG LIMC 191920Z 05003KT CAVOK 24/12 Q1026 NOSIG LIMC 191850Z VRB02KT CAVOK 24/12 Q1025 NOSIG LIMC 191820Z VRB03KT CAVOK 26/09 Q1025 NOSIG LIMC 191750Z 25006KT CAVOK 27/10 Q1025 NOSIG LIMC 191720Z 20005KT 170V250 CAVOK 27/10 Q1025 NOSIG LIMC 191650Z 17003KT 150V220 CAVOK 27/09 Q1025 NOSIG LIMC 191620Z 19004KT 150V240 CAVOK 28/10 Q1025 NOSIG LIMC 191550Z 18004KT 120V230 CAVOK 28/10 Q1024 NOSIG LIMC 191520Z VRB04KT CAVOK 28/09 Q1025 NOSIG LIMC 191450Z VRB04KT CAVOK 28/10 Q1025 NOSIG LIMC 191420Z 23005KT 170V300 CAVOK 27/09 Q1025 NOSIG LIMC 191350Z VRB04KT CAVOK 27/08 Q1026 NOSIG LIMC 191320Z VRB06KT CAVOK 27/09 Q1026 NOSIG LIMC 191250Z 23006KT 180V270 CAVOK 27/09 Q1026 NOSIG LIMC 191220Z VRB04KT CAVOK 27/08 Q1026 NOSIG LIMC 191150Z VRB03KT CAVOK 26/08 Q1026 NOSIG LIMC 191120Z 19005KT 130V220 CAVOK 26/07 Q1027 NOSIG LIMC 191050Z 18004KT 100V250 CAVOK 26/07 Q1027 NOSIG LIMC 191020Z VRB03KT CAVOK 26/07 Q1027 NOSIG LIMC 190950Z 15004KT 110V200 CAVOK 25/06 Q1027 NOSIG LIMC 190920Z 13006KT 080V180 CAVOK 25/06 Q1027 NOSIG LIMC 190850Z 14005KT 090V190 CAVOK 24/06 Q1027 NOSIG LIMC 190820Z 08007KT 050V120 CAVOK 24/06 Q1027 NOSIG LIMC 190750Z 12007KT 070V140 CAVOK 23/05 Q1027 NOSIG LIMC 190720Z 09007KT 060V130 CAVOK 23/07 Q1027 NOSIG LIMC 190650Z 08007KT CAVOK 22/08 Q1027 NOSIG LIMC 190620Z 07007KT 030V100 CAVOK 22/06 Q1027 NOSIG LIMC 190550Z 05006KT 020V080 CAVOK 21/08 Q1027 NOSIG LIMC 190520Z 05006KT CAVOK 20/08 Q1027 NOSIG LIMC 190450Z 06007KT 020V080 9999 BKN070 20/08 Q1027 NOSIG LIMC 190420Z 04007KT 9999 BKN070 20/08 Q1026 NOSIG LIMC 190350Z 05006KT 9999 BKN070 19/09 Q1026 NOSIG LIMC 190320Z 03007KT 9999 BKN080 19/09 Q1026 NOSIG LIMC 190250Z 04007KT 9999 FEW080 20/09 Q1026 NOSIG LIMC 190220Z 06006KT CAVOK 20/09 Q1026 NOSIG LIMC 190150Z 03008KT 9999 BKN095 20/10 Q1026 NOSIG LIMC 190120Z 05008KT 9999 BKN095 21/10 Q1026 NOSIG LIMC 190050Z 05007KT 9999 BKN090 21/10 Q1026 NOSIG LIMC 190020Z 07007KT 9999 BKN090 21/11 Q1026 NOSIG LIMC 182350Z 06007KT 9999 BKN080 22/11 Q1025 NOSIG LIMC 182320Z 07005KT 040V100 9999 SCT070 22/10 Q1025 NOSIG LIMC 182250Z 05005KT 030V090 9999 SCT070 22/11 Q1025 NOSIG LIMC 182220Z 10009KT CAVOK 23/10 Q1024 NOSIG LIMC 182150Z 11009KT 9999 BKN075 23/11 Q1024 NOSIG LIMC 182120Z 12009KT 9999 BKN075 24/13 Q1024 NOSIG LIMC 182050Z 12010KT 9999 SCT065 24/13 Q1024 NOSIG LIMC 182020Z 12008KT 9999 SCT065 24/13 Q1023 NOSIG LIMC 181950Z 11006KT CAVOK 24/13 Q1023 NOSIG LIMC 181920Z 14007KT CAVOK 24/14 Q1022 NOSIG LIMC 181850Z 13007KT CAVOK 25/14 Q1022 NOSIG LIMC 181820Z 13011KT CAVOK 26/14 Q1021 NOSIG LIMC 181750Z 12010KT 090V150 CAVOK 27/14 Q1021 NOSIG LIMC 181720Z 13011KT 9999 SCT060 27/14 Q1021 NOSIG LIMC 181650Z 12011KT 9999 FEW060 28/14 Q1021 NOSIG LIMC 181620Z 14011KT 100V160 9999 FEW060 28/14 Q1021 NOSIG LIMC 181550Z 14009KT 9999 SCT060 28/15 Q1021 NOSIG LIMC 181520Z 12010KT 9999 SCT060 28/15 Q1021 NOSIG LIMC 181450Z 14007KT 9999 SCT060 28/14 Q1021 NOSIG LIMC 181420Z 14007KT 090V190 9999 SCT055 29/16 Q1021 NOSIG LIMC 181350Z 12009KT 090V150 9999 SCT055 27/15 Q1021 NOSIG LIMC 181320Z 12007KT 040V160 9999 BKN050 28/16 Q1021 NOSIG

METAR Messwerte "MILANO/MALPENSA" LIMC

Zurück zur Übersicht

Ortsname
Ländercode / m ü. NN
Zeit Temperatur Taupunkt Rel.
Luftfeuchte
Luftdruck:
Altimeter
NN
Station
Wind in Beaufort
(Knoten)
Sichtweite
(Meter)
Wolken
(Meter über Grund)
Wettererscheinung
MILANO/MALPENSA
IT 221
Fr 20.05. 02:50171482 %1026
1026
999
NNO 2 (6)>= 10000Nicht signifikant 
MILANO/MALPENSA
IT 221
Fr 20.05. 02:20171482 %1026
1026
999
NNO 2 (5)>= 10000Nicht signifikant 
MILANO/MALPENSA
IT 221
Fr 20.05. 01:50181477 %1026
1026
999
N 3 (7)>= 10000Nicht signifikant 
MILANO/MALPENSA
IT 221
Fr 20.05. 01:20181477 %1026
1026
999
NNO 2 (6)>= 10000Nicht signifikant 
MILANO/MALPENSA
IT 221
Fr 20.05. 00:50181477 %1026
1026
999
NNO 2 (5)>= 10000Nicht signifikant 
MILANO/MALPENSA
IT 221
Fr 20.05. 00:20191473 %1026
1026
999
NNO 2 (5)>= 10000Nicht signifikant 
MILANO/MALPENSA
IT 221
Do 19.05. 23:50191473 %1026
1026
999
NNO 2 (5)>= 10000Nicht signifikant 
MILANO/MALPENSA
IT 221
Do 19.05. 23:20201468 %1026
1026
999
NNO 3 (8)>= 10000Nicht signifikant 
MILANO/MALPENSA
IT 221
Do 19.05. 22:50201260 %1026
1026
999
N 3 (7)>= 10000Nicht signifikant 
MILANO/MALPENSA
IT 221
Do 19.05. 22:20211256 %1026
1026
999
SSO 2 (3)
OSO - S
>= 10000Nicht signifikant 
MILANO/MALPENSA
IT 221
Do 19.05. 21:50221253 %1026
1025
999
NNO 2 (3)>= 10000Nicht signifikant 
MILANO/MALPENSA
IT 221
Do 19.05. 21:20241247 %1026
1025
999
NO 2 (3)>= 10000Nicht signifikant 
MILANO/MALPENSA
IT 221
Do 19.05. 20:50241247 %1025
1024
998
Uml 1 (2)>= 10000Nicht signifikant 
MILANO/MALPENSA
IT 221
Do 19.05. 20:2026934 %1025
1024
998
Uml 2 (3)>= 10000Nicht signifikant 
MILANO/MALPENSA
IT 221
Do 19.05. 19:50271034 %1025
1024
998
WSW 2 (6)>= 10000Nicht signifikant 
MILANO/MALPENSA
IT 221
Do 19.05. 19:20271034 %1025
1024
998
SSW 2 (5)
S - WSW
>= 10000Nicht signifikant 
MILANO/MALPENSA
IT 221
Do 19.05. 18:5027932 %1025
1024
998
S 2 (3)
SSO - SW
>= 10000Nicht signifikant 
MILANO/MALPENSA
IT 221
Do 19.05. 18:20281032 %1025
1024
998
S 2 (4)
SSO - WSW
>= 10000Nicht signifikant 
MILANO/MALPENSA
IT 221
Do 19.05. 17:50281032 %1024
1023
998
S 2 (4)
OSO - SW
>= 10000Nicht signifikant 
MILANO/MALPENSA
IT 221
Do 19.05. 17:2028930 %1025
1024
998
Uml 2 (4)>= 10000Nicht signifikant 
MILANO/MALPENSA
IT 221
Do 19.05. 16:50281032 %1025
1024
998
Uml 2 (4)>= 10000Nicht signifikant 
MILANO/MALPENSA
IT 221
Do 19.05. 16:2027932 %1025
1024
998
SW 2 (5)
S - WNW
>= 10000Nicht signifikant 
MILANO/MALPENSA
IT 221
Do 19.05. 15:5027830 %1026
1025
999
Uml 2 (4)>= 10000Nicht signifikant 
MILANO/MALPENSA
IT 221
Do 19.05. 15:2027932 %1026
1025
999
Uml 2 (6)>= 10000Nicht signifikant 
MILANO/MALPENSA
IT 221
Do 19.05. 14:5027932 %1026
1025
999
SW 2 (6)
S - W
>= 10000Nicht signifikant 
MILANO/MALPENSA
IT 221
Do 19.05. 14:2027830 %1026
1025
999
Uml 2 (4)>= 10000Nicht signifikant 
MILANO/MALPENSA
IT 221
Do 19.05. 13:5026832 %1026
1025
999
Uml 2 (3)>= 10000Nicht signifikant 
MILANO/MALPENSA
IT 221
Do 19.05. 13:2026730 %1027
1026
1000
S 2 (5)
SO - SW
>= 10000Nicht signifikant 
MILANO/MALPENSA
IT 221
Do 19.05. 12:5026730 %1027
1026
1000
S 2 (4)
O - WSW
>= 10000Nicht signifikant 
MILANO/MALPENSA
IT 221
Do 19.05. 12:2026730 %1027
1026
1000
Uml 2 (3)>= 10000Nicht signifikant 
MILANO/MALPENSA
IT 221
Do 19.05. 11:5025630 %1027
1026
1000
SSO 2 (4)
OSO - SSW
>= 10000Nicht signifikant 
MILANO/MALPENSA
IT 221
Do 19.05. 11:2025630 %1027
1026
1000
SO 2 (6)
O - S
>= 10000Nicht signifikant 
MILANO/MALPENSA
IT 221
Do 19.05. 10:5024631 %1027
1026
1000
SO 2 (5)
O - S
>= 10000Nicht signifikant 
MILANO/MALPENSA
IT 221
Do 19.05. 10:2024631 %1027
1026
1000
O 3 (7)
NO - OSO
>= 10000Nicht signifikant 
MILANO/MALPENSA
IT 221
Do 19.05. 09:5023531 %1027
1026
1000
OSO 3 (7)
ONO - SO
>= 10000Nicht signifikant 
MILANO/MALPENSA
IT 221
Do 19.05. 09:2023736 %1027
1026
1000
O 3 (7)
ONO - SO
>= 10000Nicht signifikant 
MILANO/MALPENSA
IT 221
Do 19.05. 08:5022841 %1027
1026
1000
O 3 (7)>= 10000Nicht signifikant 
MILANO/MALPENSA
IT 221
Do 19.05. 08:2022635 %1027
1026
1000
ONO 3 (7)
NNO - O
>= 10000Nicht signifikant 
MILANO/MALPENSA
IT 221
Do 19.05. 07:5021843 %1027
1027
1000
NO 2 (6)
NNO - O
>= 10000Nicht signifikant 
MILANO/MALPENSA
IT 221
Do 19.05. 07:2020846 %1027
1027
1000
NO 2 (6)>= 10000Nicht signifikant 
MILANO/MALPENSA
IT 221
Do 19.05. 06:5020846 %1027
1027
1000
ONO 3 (7)
NNO - O
>= 10000Stark bewölkt (2100) 
MILANO/MALPENSA
IT 221
Do 19.05. 06:2020846 %1026
1026
999
NO 3 (7)>= 10000Stark bewölkt (2100) 
MILANO/MALPENSA
IT 221
Do 19.05. 05:5019952 %1026
1026
999
NO 2 (6)>= 10000Stark bewölkt (2100) 
MILANO/MALPENSA
IT 221
Do 19.05. 05:2019952 %1026
1026
999
NNO 3 (7)>= 10000Stark bewölkt (2400) 
MILANO/MALPENSA
IT 221
Do 19.05. 04:5020949 %1026
1026
999
NO 3 (7)>= 10000Leicht bewölkt (2400) 
MILANO/MALPENSA
IT 221
Do 19.05. 04:2020949 %1026
1026
999
ONO 2 (6)>= 10000Nicht signifikant 
MILANO/MALPENSA
IT 221
Do 19.05. 03:50201053 %1026
1026
999
NNO 3 (8)>= 10000Stark bewölkt (2900) 
MILANO/MALPENSA
IT 221
Do 19.05. 03:20211049 %1026
1026
999
NO 3 (8)>= 10000Stark bewölkt (2900) 
MILANO/MALPENSA
IT 221
Do 19.05. 02:50211049 %1026
1026
999
NO 3 (7)>= 10000Stark bewölkt (2700) 
MILANO/MALPENSA
IT 221
Do 19.05. 02:20211153 %1026
1026
999
ONO 3 (7)>= 10000Stark bewölkt (2700) 
MILANO/MALPENSA
IT 221
Do 19.05. 01:50221150 %1025
1024
998
ONO 3 (7)>= 10000Stark bewölkt (2400) 
MILANO/MALPENSA
IT 221
Do 19.05. 01:20221046 %1025
1024
998
ONO 2 (5)
NO - O
>= 10000Wolkig (2100) 
MILANO/MALPENSA
IT 221
Do 19.05. 00:50221150 %1025
1024
998
NO 2 (5)
NNO - O
>= 10000Wolkig (2100) 
MILANO/MALPENSA
IT 221
Do 19.05. 00:20231044 %1024
1023
998
O 3 (9)>= 10000Nicht signifikant 
MILANO/MALPENSA
IT 221
Mi 18.05. 23:50231147 %1024
1023
998
OSO 3 (9)>= 10000Stark bewölkt (2300) 
MILANO/MALPENSA
IT 221
Mi 18.05. 23:20241350 %1024
1023
998
OSO 3 (9)>= 10000Stark bewölkt (2300) 
MILANO/MALPENSA
IT 221
Mi 18.05. 22:50241350 %1024
1023
998
OSO 3 (10)>= 10000Wolkig (2000) 
MILANO/MALPENSA
IT 221
Mi 18.05. 22:20241350 %1023
1022
997
OSO 3 (8)>= 10000Wolkig (2000) 
MILANO/MALPENSA
IT 221
Mi 18.05. 21:50241350 %1023
1022
997
OSO 2 (6)>= 10000Nicht signifikant 
MILANO/MALPENSA
IT 221
Mi 18.05. 21:20241454 %1022
1021
996
SO 3 (7)>= 10000Nicht signifikant 
MILANO/MALPENSA
IT 221
Mi 18.05. 20:50251450 %1022
1021
996
SO 3 (7)>= 10000Nicht signifikant 
MILANO/MALPENSA
IT 221
Mi 18.05. 20:20261448 %1021
1020
995
SO 4 (11)>= 10000Nicht signifikant 
MILANO/MALPENSA
IT 221
Mi 18.05. 19:50271445 %1021
1020
995
OSO 3 (10)
O - SSO
>= 10000Nicht signifikant 
MILANO/MALPENSA
IT 221
Mi 18.05. 19:20271445 %1021
1020
995
SO 4 (11)>= 10000Wolkig (1800) 
MILANO/MALPENSA
IT 221
Mi 18.05. 18:50281442 %1021
1020
995
OSO 4 (11)>= 10000Leicht bewölkt (1800) 
MILANO/MALPENSA
IT 221
Mi 18.05. 18:20281442 %1021
1020
995
SO 4 (11)
O - SSO
>= 10000Leicht bewölkt (1800) 
MILANO/MALPENSA
IT 221
Mi 18.05. 17:50281545 %1021
1020
995
SO 3 (9)>= 10000Wolkig (1800) 
MILANO/MALPENSA
IT 221
Mi 18.05. 17:20281545 %1021
1020
995
OSO 3 (10)>= 10000Wolkig (1800) 
MILANO/MALPENSA
IT 221
Mi 18.05. 16:50281442 %1021
1020
995
SO 3 (7)>= 10000Wolkig (1800) 
MILANO/MALPENSA
IT 221
Mi 18.05. 16:20291645 %1021
1020
995
SO 3 (7)
O - S
>= 10000Wolkig (1700) 
MILANO/MALPENSA
IT 221
Mi 18.05. 15:50271548 %1021
1020
995
OSO 3 (9)
O - SSO
>= 10000Wolkig (1700) 
MILANO/MALPENSA
IT 221
Mi 18.05. 15:20281648 %1021
1020
995
OSO 3 (7)
NO - SSO
>= 10000Stark bewölkt (1500) 

Altimeter: Einstellung am Altimeter (Höhenmesser), die Höhe 0 muss auf diesen Luftdruckwert zeigen, damit das Gerät die Stationshöhe richtig anzeigt.

NN: Luftdruck reduziert auf "Normal Null", auf Meereshöhe, dieser von der Temperatur abhängige Wert wird bisweilen unkorrekt einfach als "Luftdruck" bezeichnet. Eigentlich nur eine fiktive Größe, die es erlaubt, Stationen auf unterschiedlichen Höhen miteinander zu vergleichen.

Station: Realer Luftdruck an der Station.